Flight Track Log - Related Links

Times and Time Zones

All times are in EST time to prevent confusion due to time zone crossing. See the N402CT flight status page for this flight to view local times or setup timezone preferences in your user account.

Time Position Orientation Groundspeed Altitude Reporting Facility
EST Latitude Longitude Course Direction KTS MPH feet Rate Location/Type
Sun 06:19:51 PM 43.5890 -79.3094 293° West  Level FlightAware Approximate
Sun 06:21:30 PM 43.6167 -79.4000 160° South 160 184 1,200  Level Toronto Center
Sun 06:22:30 PM 43.5833 -79.3833 125° Southeast 180 207 3,000 1,050 Climbing Toronto Center
Sun 06:23:30 PM 43.5500 -79.3167 109° East 230 265 3,300 1,500 Climbing Toronto Center
Sun 06:24:30 PM 43.5333 -79.2500 105° East 200 230 6,000 2,250 Climbing Toronto Center
Sun 06:25:30 PM 43.5167 -79.1667 125° Southeast 180 207 7,800 1,900 Climbing Toronto Center
Sun 06:26:30 PM 43.4833 -79.1000 109° East 190 219 9,800 1,950 Climbing Toronto Center
Sun 06:27:30 PM 43.4667 -79.0333 109° East 190 219 11,700 1,950 Climbing Toronto Center
Sun 06:28:30 PM 43.4500 -78.9667 125° Southeast 200 230 13,700 1,950 Climbing Toronto Center
Sun 06:29:30 PM 43.4167 -78.9000 125° Southeast 210 242 15,600 1,950 Climbing Toronto Center
Sun 06:30:30 PM 43.3833 -78.8333 115° Southeast 220 253 17,600 1,850 Climbing Toronto Center
Sun 06:31:30 PM 43.3500 -78.7333 144° Southeast 220 253 19,300 1,700 Climbing Toronto Center
Sun 06:32:30 PM 43.3167 -78.7000 124° Southeast 220 253 21,000 850 Climbing Toronto Center
Sun 06:33:30 PM 43.2667 -78.6000 118° Southeast 250 288 21,000  Level Toronto Center
Sun 06:34:12 PM 43.2556 -78.5708 124° Southeast 257 296 21,000  Level Cleveland Center
Sun 06:35:12 PM 43.2081 -78.4756 126° Southeast 292 336 21,000  Level Cleveland Center
Sun 06:36:12 PM 43.1539 -78.3750 125° Southeast 297 342 21,000  Level Cleveland Center
Sun 06:37:12 PM 43.1064 -78.2828 123° Southeast 303 349 21,000  Level Cleveland Center
Sun 06:38:12 PM 43.0606 -78.1878 123° Southeast 303 349 21,000  Level Cleveland Center
Sun 06:39:12 PM 43.0147 -78.0903 123° Southeast 298 343 21,000  Level Cleveland Center
Sun 06:40:12 PM 42.9689 -77.9956 125° Southeast 298 343 21,000  Level Cleveland Center
Sun 06:41:12 PM 42.9211 -77.9039 124° Southeast 298 343 21,000  Level Cleveland Center
Sun 06:42:12 PM 42.8750 -77.8122 120° Southeast 298 343 21,000  Level Cleveland Center
Sun 06:43:12 PM 42.8331 -77.7122 103° East 298 343 21,000  Level Cleveland Center
Sun 06:45:07 PM 42.7964 -77.4978 102° East 286 329 21,000  Level Boston Center
Sun 06:46:07 PM 42.7786 -77.3831 120° Southeast 293 337 21,000  Level Boston Center
Sun 06:46:30 PM 42.7500 -77.3167 73° East 310 357 21,000  Level Toronto Center
Sun 06:47:07 PM 42.7606 -77.2683 102° East 306 352 21,000  Level Boston Center
Sun 06:48:07 PM 42.7425 -77.1539 102° East 306 352 21,000  Level Boston Center
Sun 06:49:07 PM 42.7258 -77.0508 102° East 306 352 21,000  Level Boston Center
Sun 06:50:07 PM 42.7075 -76.9361 102° East 306 352 21,000  Level Boston Center
Sun 06:51:07 PM 42.6892 -76.8192 103° East 306 352 21,000  Level Boston Center
Sun 06:52:07 PM 42.6706 -76.7075 108° East 306 352 21,000  Level Boston Center
Sun 06:53:07 PM 42.6433 -76.5956 120° Southeast 301 346 21,000  Level Boston Center
Sun 06:54:07 PM 42.5972 -76.4881 122° Southeast 301 346 21,000  Level Boston Center
Sun 06:55:07 PM 42.5506 -76.3864 121° Southeast 306 352 21,000  Level Boston Center
Sun 06:56:07 PM 42.5061 -76.2878 120° Southeast 306 352 21,000  Level Boston Center
Sun 06:57:07 PM 42.4675 -76.1981 123° Southeast 306 352 21,000  Level Boston Center
Sun 06:58:07 PM 42.4225 -76.1025 121° Southeast 306 352 21,000  Level Boston Center
Sun 06:59:07 PM 42.3778 -76.0014 122° Southeast 312 359 21,000 -50 Level Boston Center
Sun 07:00:07 PM 42.3308 -75.9003 121° Southeast 312 359 20,900 -500 Descending Boston Center
Sun 07:01:07 PM 42.2842 -75.7967 120° Southeast 312 359 20,000 -800 Descending Boston Center
Sun 07:02:07 PM 42.2372 -75.6875 122° Southeast 324 373 19,300 -650 Descending Boston Center
Sun 07:03:07 PM 42.1900 -75.5869 123° Southeast 324 373 18,700 -650 Descending Boston Center
Sun 07:04:07 PM 42.1406 -75.4839 122° Southeast 324 373 18,000 -650 Descending Boston Center
Sun 07:05:07 PM 42.0933 -75.3836 120° Southeast 324 373 17,400 -500 Descending Boston Center
Sun 07:06:07 PM 42.0500 -75.2836 116° Southeast 319 367 17,000 -350 Descending Boston Center
Sun 07:07:07 PM 42.0128 -75.1814 118° Southeast 308 354 16,700 -800 Descending Boston Center
Sun 07:08:07 PM 41.9736 -75.0819 117° Southeast 301 346 15,400 -1,300 Descending Boston Center
Sun 07:09:07 PM 41.9303 -74.9683 129° Southeast 301 346 14,100 -1,200 Descending Boston Center
Sun 07:10:07 PM 41.8842 -74.8914 135° Southeast 301 346 13,000 -1,250 Descending Boston Center
Sun 07:11:07 PM 41.8233 -74.8108 137° Southeast 290 334 11,600 -1,300 Descending Boston Center
Sun 07:12:07 PM 41.7706 -74.7450 135° Southeast 285 328 10,400 -1,300 Descending Boston Center
Sun 07:13:07 PM 41.7094 -74.6619 142° Southeast 285 328 9,000 -1,300 Descending Boston Center
Sun 07:14:07 PM 41.6544 -74.6044 177° South 285 328 7,800 -1,300 Descending Boston Center
Sun 07:15:07 PM 41.5692 -74.5989 179° South 268 308 6,400 -900 Descending Boston Center
Sun 07:16:07 PM 41.5044 -74.5967 186° South 274 315 6,000 -140 Descending Boston Center
Sun 07:17:58 PM 41.3667 -74.6167 191° South 245 282 6,000  Level New York TRACON
Sun 07:18:58 PM 41.3000 -74.6333 191° South 244 281 6,000 -500 Level New York TRACON
Sun 07:19:58 PM 41.2333 -74.6500 191° South 257 296 5,000 -1,000 Descending New York TRACON
Sun 07:20:52 PM 41.1667 -74.6667 169° South 256 295 4,100 -526 Descending New York TRACON
Sun 07:21:52 PM 41.1000 -74.6500 166° South 238 274 4,000 -50 Descending New York TRACON
Sun 07:22:52 PM 41.0500 -74.6333 159° South 235 270 4,000 -450 Level New York TRACON
Sun 07:23:52 PM 40.9833 -74.6000 159° South 257 296 3,100 -500 Descending New York TRACON
Sun 07:24:52 PM 40.9167 -74.5667 150° Southeast 243 280 3,000 -48 Descending New York TRACON
Sun 07:25:58 PM 40.8500 -74.5167 123° Southeast 236 272 3,000  Level New York TRACON
Sun 07:27:04 PM 40.8167 -74.4500 123° Southeast 225 259 3,000  Level New York TRACON
Sun 07:27:58 PM 40.7833 -74.3833 105° East 222 255 3,000 -526 Level New York TRACON
Sun 07:28:58 PM 40.7667 -74.3000 114° Southeast 230 265 2,000 -500 Descending New York TRACON
Sun 07:29:58 PM 40.7500 -74.2500 72° East 185 213 2,000 -190 Level New York TRACON
Sun 07:31:04 PM 40.7667 -74.1833 37° Northeast 170 196 1,600 -250 Descending New York TRACON
Sun 07:31:58 PM 40.8000 -74.1500 57° Northeast 148 170 1,500 -368 Descending New York TRACON
Sun 07:32:58 PM 40.8167 -74.1167 57° Northeast 124 143 900 -600 Descending New York TRACON
Sun 07:33:58 PM 40.8333 -74.0833 57° Northeast 97 112 300 -600 Descending New York TRACON

Login

Don't have an account? Register now (free) for customized features, flight alerts, and more!